SLSA4: ILLINOIS RIVER AT HIGHWAY 16 BRIDGE NR SILOAM SPRINGS 4SE

                                SHEF ID:       SLSA4     Illinois River at Hwy. 16 near S
STATION TYPE:

PRECIP STAGE RIV-FLOW BAT-LOAD
in ft cfs volt
Ccp-Rev Ccp-Rev Ccp-Rev Ccp-Rev
(America/Chicago)
04/27 00:00 0.01 9.31 2318 12.57
04/27 01:00 0.00 9.20 2217 12.53
04/27 02:00 0.01 9.12 2146 12.51
04/27 03:00 0.00 9.08 2110 12.50
04/27 04:00 0.00 8.98 2023 12.48
04/27 05:00 0.01 8.91 1963 12.46
04/27 06:00 0.00 8.84 1904 12.46
04/27 07:00 0.01 8.78 1855 12.45
04/27 08:00 0.00 8.72 1805 12.47
04/27 09:00 0.00 8.67 1765 12.70
04/27 10:00 0.01 8.61 1717 13.23
04/27 11:00 0.00 8.57 1675 13.45
04/27 12:00 0.00 8.53 1634 13.32
04/27 13:00 0.01 8.47 1574 13.16
04/27 14:00 0.00 8.44 1545 13.01
04/27 15:00 0.00 8.39 1496 12.94
04/27 16:00 0.00 8.37 1477 12.84
04/27 17:00 0.01 8.35 1459 12.85
04/27 18:00 0.00 8.32 1430 12.82
04/27 19:00 0.00 8.28 1394 12.74
04/27 20:00 0.00 8.26 1375 12.76
04/27 21:00 0.00 8.23 1348 12.63
04/27 22:00 0.01 8.19 1313 12.61
04/27 23:00 0.00 8.17 1295 12.59
Data processed at Tue 28Apr2026 04:14 GMT

NOTICE: If you are parsing this page

Please convert to using our Data API. Starting early 2026 we will be migrating to: https://water.usace.army.mil with modern pages rendered in JavaScript. When this migration completes you will no longer be able to scrape this page! CWMSDataAPI (CDA)

Timeseries IDs (TSIDs)

TSIDs used from left to right in the data table
SILS.Precip-Inc.Total.1Hour.1Hour.Ccp-Rev
SILS.Stage.Inst.1Hour.0.Ccp-Rev
SILS.Flow.Inst.1Hour.0.Ccp-Rev
SILS.Volt-Battery Load.Inst.1Hour.0.Ccp-Rev

                            

All information presented herein is the property of the government of the United States of America and may be revised or deleted at any time without prior notice. Dissemination of this information without the expressed written consent of the Public Affairs Office, Tulsa District U.S. Army Corps of Engineers is strictly prohibited. These data are gathered electronically and, as presented, have NOT undergone any form of quality control. These data are NOT guaranteed to be valid or correct.